Time;durP1;ratioP1;P1;durP2;ratioP2;P2;SDS_P1;SDS_P2;PMS_P1;PMS_P2;Temp;Humidity;BMP_temperature;BMP_pressure;BME280_temperature;BME280_humidity;BME280_pressure;Samples;Min_cycle;Max_cycle;Signal;HPM_P1;HPM_P2
2022/01/23 00:00:41;;;;;;;47.50;26.83;;;;;;;;;;5067141;28;20641;-75
2022/01/23 00:03:16;;;;;;;43.30;25.88;;;;;;;;;;5053119;28;20288;-77
2022/01/23 00:05:44;;;;;;;48.30;26.67;;;;;;;;;;5069036;28;20634;-76
2022/01/23 00:08:13;;;;;;;46.25;27.52;;;;;;;;;;5071384;28;20536;-77
2022/01/23 00:10:42;;;;;;;46.00;25.73;;;;;;;;;;5055904;28;20233;-77
2022/01/23 00:13:13;;;;;;;56.08;28.30;;;;;;;;;;5060002;28;20205;-76
2022/01/23 00:18:21;;;;;;;47.03;25.90;;;;;;;;;;5060211;28;20260;-77
2022/01/23 00:20:49;;;;;;;47.65;26.77;;;;;;;;;;5033487;28;20201;-78
2022/01/23 00:23:29;;;;;;;47.97;27.15;;;;;;;;;;5050982;28;20195;-75
2022/01/23 00:31:19;;;;;;;54.50;27.77;;;;;;;;;;5065747;28;20197;-77
2022/01/23 00:33:47;;;;;;;56.00;29.92;;;;;;;;;;5066293;28;20190;-76
2022/01/23 00:36:14;;;;;;;53.28;29.67;;;;;;;;;;5070421;28;20224;-75
2022/01/23 00:38:41;;;;;;;52.85;29.92;;;;;;;;;;5068693;28;20493;-77
2022/01/23 00:41:10;;;;;;;54.15;29.58;;;;;;;;;;5051137;28;20202;-75
2022/01/23 00:43:41;;;;;;;54.78;31.00;;;;;;;;;;5050834;28;20197;-76
2022/01/23 00:46:21;;;;;;;51.88;28.65;;;;;;;;;;5057621;28;20206;-77
2022/01/23 00:49:12;;;;;;;52.60;28.77;;;;;;;;;;5058230;28;20653;-76
2022/01/23 00:51:38;;;;;;;52.58;28.05;;;;;;;;;;5053783;28;20206;-77
2022/01/23 00:54:07;;;;;;;47.72;25.33;;;;;;;;;;5069311;28;20225;-77
2022/01/23 00:56:36;;;;;;;47.95;28.08;;;;;;;;;;5070657;28;20526;-75
2022/01/23 00:59:03;;;;;;;58.45;29.58;;;;;;;;;;5052888;28;20631;-75
2022/01/23 01:01:31;;;;;;;45.67;26.10;;;;;;;;;;5069481;28;20564;-77
2022/01/23 01:03:58;;;;;;;48.50;27.17;;;;;;;;;;5052762;28;20219;-77
2022/01/23 01:06:25;;;;;;;49.22;28.48;;;;;;;;;;5053166;28;20198;-76
2022/01/23 01:08:55;;;;;;;53.17;28.13;;;;;;;;;;5059331;28;20281;-77
2022/01/23 01:11:49;;;;;;;49.63;28.38;;;;;;;;;;5064856;28;20190;-78
2022/01/23 01:14:27;;;;;;;56.22;30.33;;;;;;;;;;5054460;28;20213;-77
2022/01/23 01:17:01;;;;;;;50.60;27.50;;;;;;;;;;5054299;28;20411;-75
2022/01/23 01:30:25;;;;;;;57.13;30.92;;;;;;;;;;5057086;28;20194;-76
2022/01/23 01:33:02;;;;;;;55.10;29.85;;;;;;;;;;5071822;28;20239;-75
2022/01/23 01:35:36;;;;;;;47.78;26.80;;;;;;;;;;5059397;28;20674;-77
2022/01/23 01:38:03;;;;;;;50.40;26.65;;;;;;;;;;5058904;28;20245;-76
2022/01/23 01:40:31;;;;;;;50.53;28.42;;;;;;;;;;5054179;28;20206;-76
2022/01/23 01:42:58;;;;;;;53.95;29.20;;;;;;;;;;5054231;28;20675;-76
2022/01/23 01:45:28;;;;;;;55.03;29.92;;;;;;;;;;5054378;28;20207;-76
2022/01/23 01:47:56;;;;;;;54.67;29.88;;;;;;;;;;5055626;28;20214;-79
2022/01/23 01:50:24;;;;;;;53.70;30.42;;;;;;;;;;5069974;28;20632;-77
2022/01/23 01:52:51;;;;;;;58.22;30.48;;;;;;;;;;5070744;28;20183;-75
2022/01/23 01:55:24;;;;;;;52.78;26.50;;;;;;;;;;5066126;28;20549;-76
2022/01/23 01:57:54;;;;;;;50.38;28.52;;;;;;;;;;5053273;28;20227;-77
2022/01/23 02:00:39;;;;;;;50.70;27.92;;;;;;;;;;5053816;28;20302;-76
2022/01/23 02:08:30;;;;;;;46.42;27.17;;;;;;;;;;5068338;28;20190;-76
2022/01/23 02:11:03;;;;;;;48.20;28.27;;;;;;;;;;5068716;28;20534;-76
2022/01/23 02:13:33;;;;;;;53.00;27.60;;;;;;;;;;5054173;28;20281;-76
2022/01/23 02:16:30;;;;;;;49.97;26.65;;;;;;;;;;5067469;28;20195;-76
2022/01/23 02:51:27;;;;;;;46.88;27.52;;;;;;;;;;5071736;28;20194;-75
2022/01/23 02:54:18;;;;;;;51.03;26.80;;;;;;;;;;5072913;28;20217;-77
2022/01/23 02:56:49;;;;;;;48.45;25.60;;;;;;;;;;5071716;28;20226;-78
2022/01/23 02:59:24;;;;;;;48.38;28.00;;;;;;;;;;5068776;28;20647;-76
2022/01/23 03:02:04;;;;;;;49.38;27.77;;;;;;;;;;5066701;28;20189;-75
2022/01/23 03:04:34;;;;;;;44.42;26.15;;;;;;;;;;5052325;28;20222;-76
2022/01/23 03:07:15;;;;;;;45.10;27.35;;;;;;;;;;5034312;28;20714;-75
2022/01/23 03:09:56;;;;;;;46.10;26.73;;;;;;;;;;5050759;28;20439;-76
2022/01/23 03:13:21;;;;;;;47.65;27.17;;;;;;;;;;5052536;28;20199;-75
2022/01/23 03:15:29;;;;;;;54.35;26.45;;;;;;;;;;5058073;28;20214;-76
2022/01/23 03:31:43;;;;;;;52.75;26.85;;;;;;;;;;5048927;28;20532;-77
2022/01/23 03:34:10;;;;;;;48.80;26.73;;;;;;;;;;5035343;28;20294;-76
2022/01/23 03:36:38;;;;;;;46.95;26.73;;;;;;;;;;5040621;28;20326;-76
2022/01/23 03:39:08;;;;;;;44.83;26.95;;;;;;;;;;5035262;28;20252;-76
2022/01/23 03:41:38;;;;;;;42.92;24.98;;;;;;;;;;5030393;28;20572;-75
2022/01/23 03:44:06;;;;;;;44.35;25.58;;;;;;;;;;5012142;28;20947;-76
2022/01/23 03:46:49;;;;;;;48.28;25.63;;;;;;;;;;5028766;28;20211;-75
2022/01/23 03:51:58;;;;;;;48.72;26.25;;;;;;;;;;5029766;28;20317;-76
2022/01/23 03:54:26;;;;;;;42.95;25.58;;;;;;;;;;5034334;28;20222;-76
2022/01/23 03:56:55;;;;;;;48.05;25.48;;;;;;;;;;5031362;28;20211;-75
2022/01/23 03:59:22;;;;;;;45.72;25.88;;;;;;;;;;5028915;28;20199;-76
2022/01/23 04:01:49;;;;;;;46.10;25.35;;;;;;;;;;5032957;28;20603;-75
2022/01/23 04:04:28;;;;;;;45.70;25.10;;;;;;;;;;5063407;28;20225;-77
2022/01/23 04:06:55;;;;;;;44.03;25.48;;;;;;;;;;5067004;28;20221;-76
2022/01/23 04:09:23;;;;;;;41.67;23.73;;;;;;;;;;5067994;28;20204;-75
2022/01/23 04:11:51;;;;;;;42.72;24.40;;;;;;;;;;5067043;28;20204;-75
2022/01/23 04:14:21;;;;;;;40.75;24.45;;;;;;;;;;5066076;28;20217;-76
2022/01/23 04:17:14;;;;;;;42.95;24.52;;;;;;;;;;5070687;28;20240;-75
2022/01/23 04:19:57;;;;;;;46.20;25.17;;;;;;;;;;5060742;28;20667;-77
2022/01/23 04:33:26;;;;;;;41.20;23.23;;;;;;;;;;5067834;28;20206;-76
2022/01/23 05:00:05;;;;;;;43.90;24.50;;;;;;;;;;5034867;28;20198;-76
2022/01/23 05:03:04;;;;;;;41.28;23.48;;;;;;;;;;5040535;28;20194;-75
2022/01/23 05:05:33;;;;;;;42.47;23.45;;;;;;;;;;5049108;28;20226;-74
2022/01/23 05:08:03;;;;;;;46.55;24.23;;;;;;;;;;5068296;28;20200;-76
2022/01/23 05:10:31;;;;;;;46.17;26.00;;;;;;;;;;5050481;28;20686;-74
2022/01/23 05:12:58;;;;;;;41.33;23.92;;;;;;;;;;5049521;28;20615;-76
2022/01/23 05:15:25;;;;;;;45.65;25.77;;;;;;;;;;5050764;28;20210;-77
2022/01/23 05:17:54;;;;;;;47.67;24.77;;;;;;;;;;5050513;28;20233;-78
2022/01/23 05:20:25;;;;;;;44.47;25.75;;;;;;;;;;5063174;28;20190;-75
2022/01/23 05:22:57;;;;;;;40.83;25.05;;;;;;;;;;5065359;28;20293;-77
2022/01/23 05:25:28;;;;;;;47.03;25.63;;;;;;;;;;5069272;28;20295;-75
2022/01/23 05:27:55;;;;;;;38.55;25.23;;;;;;;;;;5063039;28;20194;-75
2022/01/23 05:30:23;;;;;;;40.88;22.60;;;;;;;;;;5035153;28;20640;-77
2022/01/23 05:32:50;;;;;;;45.70;26.60;;;;;;;;;;5049594;28;20195;-75
2022/01/23 05:35:20;;;;;;;42.58;24.90;;;;;;;;;;5060017;28;20319;-76
2022/01/23 05:37:48;;;;;;;51.00;25.00;;;;;;;;;;5064581;28;20356;-75
2022/01/23 05:40:18;;;;;;;37.45;22.95;;;;;;;;;;5067646;28;20677;-75
2022/01/23 05:42:45;;;;;;;47.45;24.27;;;;;;;;;;5064784;28;20194;-77
2022/01/23 05:45:12;;;;;;;47.80;25.73;;;;;;;;;;5070174;28;20402;-76
2022/01/23 05:47:39;;;;;;;44.67;25.50;;;;;;;;;;5070280;28;20194;-77
2022/01/23 05:50:07;;;;;;;42.30;24.85;;;;;;;;;;5070259;28;20196;-77
2022/01/23 05:52:36;;;;;;;42.58;25.35;;;;;;;;;;5068753;28;20560;-76
2022/01/23 05:55:04;;;;;;;45.42;26.85;;;;;;;;;;5072428;28;20214;-77
2022/01/23 05:57:31;;;;;;;46.70;25.55;;;;;;;;;;5068496;28;20218;-75
2022/01/23 05:59:58;;;;;;;46.00;25.17;;;;;;;;;;5065622;28;20194;-75
2022/01/23 06:02:25;;;;;;;48.08;26.33;;;;;;;;;;5058442;28;20206;-76
2022/01/23 06:04:52;;;;;;;46.88;26.65;;;;;;;;;;5053777;28;20575;-76
2022/01/23 06:07:19;;;;;;;43.05;25.35;;;;;;;;;;5052350;28;20211;-77
2022/01/23 06:09:48;;;;;;;41.42;25.75;;;;;;;;;;5051593;28;20191;-77
2022/01/23 06:12:15;;;;;;;46.47;24.42;;;;;;;;;;5052974;28;20261;-75
2022/01/23 06:14:42;;;;;;;48.10;26.10;;;;;;;;;;5070342;28;20221;-75
2022/01/23 06:17:09;;;;;;;45.45;25.25;;;;;;;;;;5067994;28;20186;-76
2022/01/23 06:19:38;;;;;;;40.70;25.23;;;;;;;;;;5068448;28;20198;-75
2022/01/23 06:22:06;;;;;;;51.85;25.60;;;;;;;;;;5069285;28;20289;-75
2022/01/23 06:24:33;;;;;;;40.30;23.83;;;;;;;;;;5051186;28;20237;-76
2022/01/23 06:27:03;;;;;;;41.97;23.50;;;;;;;;;;5052751;28;20198;-76
2022/01/23 06:29:31;;;;;;;41.60;23.40;;;;;;;;;;5034669;28;20203;-75
2022/01/23 06:31:59;;;;;;;40.88;24.92;;;;;;;;;;5062750;28;20195;-75
2022/01/23 06:34:26;;;;;;;41.40;24.25;;;;;;;;;;5052707;28;20217;-75
2022/01/23 06:36:54;;;;;;;46.28;25.00;;;;;;;;;;5065684;28;20221;-76
2022/01/23 06:39:22;;;;;;;42.50;25.50;;;;;;;;;;5071501;28;20308;-75
2022/01/23 06:41:49;;;;;;;45.05;24.40;;;;;;;;;;5072678;28;20186;-76
2022/01/23 06:44:18;;;;;;;40.83;24.60;;;;;;;;;;5055647;28;20210;-76
2022/01/23 06:46:45;;;;;;;43.00;24.52;;;;;;;;;;5051157;28;20190;-74
2022/01/23 06:49:12;;;;;;;44.90;24.88;;;;;;;;;;5057154;28;20209;-76
2022/01/23 06:51:42;;;;;;;45.83;25.17;;;;;;;;;;5069668;28;20183;-76
2022/01/23 06:54:09;;;;;;;42.58;24.65;;;;;;;;;;5050766;28;20210;-75
2022/01/23 06:56:36;;;;;;;45.70;24.38;;;;;;;;;;5052484;28;20669;-75
2022/01/23 06:59:04;;;;;;;45.65;26.02;;;;;;;;;;5071608;28;20253;-75
2022/01/23 07:01:33;;;;;;;45.88;25.17;;;;;;;;;;5072010;28;20198;-76
2022/01/23 07:04:00;;;;;;;42.95;23.30;;;;;;;;;;5052084;28;20222;-76
2022/01/23 07:06:27;;;;;;;45.75;24.35;;;;;;;;;;5058661;28;20525;-76
2022/01/23 07:08:54;;;;;;;51.85;25.88;;;;;;;;;;5074420;28;20205;-75
2022/01/23 07:11:21;;;;;;;42.20;24.38;;;;;;;;;;5073509;28;20198;-75
2022/01/23 07:13:48;;;;;;;41.30;24.50;;;;;;;;;;5067722;28;20198;-74
2022/01/23 07:16:15;;;;;;;41.30;24.05;;;;;;;;;;5066871;28;20194;-74
2022/01/23 07:18:44;;;;;;;44.28;26.02;;;;;;;;;;5056026;28;20225;-75
2022/01/23 07:21:12;;;;;;;45.60;26.42;;;;;;;;;;5051264;28;20279;-74
2022/01/23 07:23:49;;;;;;;40.95;24.42;;;;;;;;;;5051462;28;20199;-76
2022/01/23 07:26:18;;;;;;;40.35;24.15;;;;;;;;;;5052280;28;20202;-75
2022/01/23 07:28:46;;;;;;;39.88;22.83;;;;;;;;;;5059945;28;20202;-79
2022/01/23 07:31:30;;;;;;;39.22;23.38;;;;;;;;;;5073906;28;20202;-76
2022/01/23 07:33:59;;;;;;;46.88;25.40;;;;;;;;;;5059075;28;20251;-75
2022/01/23 07:36:26;;;;;;;43.92;25.60;;;;;;;;;;5065381;28;20194;-74
2022/01/23 07:38:53;;;;;;;42.63;23.15;;;;;;;;;;5068506;28;21873;-75
2022/01/23 07:41:20;;;;;;;42.30;26.17;;;;;;;;;;5071310;28;20189;-75
2022/01/23 07:43:48;;;;;;;45.33;25.83;;;;;;;;;;5071626;28;20204;-76
2022/01/23 07:46:15;;;;;;;42.30;25.95;;;;;;;;;;5071052;28;20198;-75
2022/01/23 07:48:42;;;;;;;47.40;25.35;;;;;;;;;;5071808;28;20198;-76
2022/01/23 07:51:11;;;;;;;42.90;24.83;;;;;;;;;;5071252;28;20201;-76
2022/01/23 07:53:38;;;;;;;43.35;24.90;;;;;;;;;;5060627;28;20198;-76
2022/01/23 07:56:05;;;;;;;46.13;25.67;;;;;;;;;;5066975;28;20190;-76
2022/01/23 07:58:32;;;;;;;44.60;25.08;;;;;;;;;;5069823;28;20218;-76
2022/01/23 08:00:59;;;;;;;44.50;24.42;;;;;;;;;;5065062;28;20710;-76
2022/01/23 08:03:27;;;;;;;38.42;23.65;;;;;;;;;;5066390;28;20635;-76
2022/01/23 08:05:54;;;;;;;43.55;25.85;;;;;;;;;;5051631;28;20546;-76
2022/01/23 08:08:22;;;;;;;39.63;23.30;;;;;;;;;;5053931;28;20190;-75
2022/01/23 08:10:49;;;;;;;45.33;24.98;;;;;;;;;;5069717;28;20194;-76
2022/01/23 08:13:17;;;;;;;41.65;24.38;;;;;;;;;;5065170;28;20217;-76
2022/01/23 08:15:44;;;;;;;46.58;24.88;;;;;;;;;;5068910;28;20232;-75
2022/01/23 08:18:11;;;;;;;40.42;24.52;;;;;;;;;;5059164;28;20272;-75
2022/01/23 08:20:38;;;;;;;39.42;22.98;;;;;;;;;;5050947;28;20186;-76
2022/01/23 08:23:06;;;;;;;47.65;24.70;;;;;;;;;;5050031;28;20198;-75
2022/01/23 08:25:34;;;;;;;42.78;24.55;;;;;;;;;;5034833;28;20245;-75
2022/01/23 08:28:02;;;;;;;42.25;24.38;;;;;;;;;;5067077;28;20225;-76
2022/01/23 08:30:29;;;;;;;36.72;22.95;;;;;;;;;;5066839;28;20201;-75
2022/01/23 08:32:56;;;;;;;44.53;23.90;;;;;;;;;;5070257;28;20186;-76
2022/01/23 08:35:25;;;;;;;45.80;23.58;;;;;;;;;;5064969;28;20214;-76
2022/01/23 08:37:53;;;;;;;39.80;23.83;;;;;;;;;;5068273;28;20218;-76
2022/01/23 08:40:23;;;;;;;46.30;25.40;;;;;;;;;;5053452;28;20201;-76
2022/01/23 08:42:52;;;;;;;46.65;24.42;;;;;;;;;;5058158;28;20198;-75
2022/01/23 08:48:01;;;;;;;44.97;24.85;;;;;;;;;;5049934;28;20210;-76
2022/01/23 08:50:28;;;;;;;49.33;26.02;;;;;;;;;;5054643;28;20190;-78
2022/01/23 08:52:55;;;;;;;44.22;24.60;;;;;;;;;;5067005;28;20186;-76
2022/01/23 08:55:23;;;;;;;46.75;25.35;;;;;;;;;;5056511;28;20210;-76
2022/01/23 08:57:51;;;;;;;48.80;26.63;;;;;;;;;;5063182;28;20216;-74
2022/01/23 09:00:19;;;;;;;43.05;24.55;;;;;;;;;;5055542;28;20209;-76
2022/01/23 09:02:47;;;;;;;43.80;24.30;;;;;;;;;;5053397;28;20659;-75
2022/01/23 09:05:14;;;;;;;44.65;24.50;;;;;;;;;;5051324;28;20203;-76
2022/01/23 09:07:41;;;;;;;42.75;23.80;;;;;;;;;;5050776;28;20194;-75
2022/01/23 09:10:09;;;;;;;42.83;24.33;;;;;;;;;;5064129;28;20593;-76
2022/01/23 09:12:57;;;;;;;43.75;24.58;;;;;;;;;;5059555;28;20857;-76
2022/01/23 09:15:25;;;;;;;47.00;26.65;;;;;;;;;;5069684;28;20360;-77
2022/01/23 09:17:52;;;;;;;45.75;25.67;;;;;;;;;;5067098;28;20202;-76
2022/01/23 09:20:20;;;;;;;45.00;25.35;;;;;;;;;;5072361;28;20202;-75
2022/01/23 09:22:47;;;;;;;46.45;26.42;;;;;;;;;;5068857;28;20535;-76
2022/01/23 09:25:14;;;;;;;45.42;25.77;;;;;;;;;;5064547;28;20221;-76
2022/01/23 09:27:41;;;;;;;43.03;22.80;;;;;;;;;;5065968;28;20635;-76
2022/01/23 09:30:17;;;;;;;37.40;23.10;;;;;;;;;;5068389;28;20852;-76
2022/01/23 09:32:45;;;;;;;38.92;23.27;;;;;;;;;;5070448;28;20604;-77
2022/01/23 09:35:14;;;;;;;41.97;24.10;;;;;;;;;;5070418;28;20233;-76
2022/01/23 09:37:44;;;;;;;43.10;23.20;;;;;;;;;;5050650;28;20198;-79
2022/01/23 09:40:12;;;;;;;42.08;23.45;;;;;;;;;;5060432;28;20225;-77
2022/01/23 09:42:43;;;;;;;37.33;23.60;;;;;;;;;;5068373;28;20534;-76
2022/01/23 09:45:12;;;;;;;40.72;24.33;;;;;;;;;;5069336;28;20206;-76
2022/01/23 09:47:40;;;;;;;37.13;23.00;;;;;;;;;;5058876;28;20294;-76
2022/01/23 09:50:10;;;;;;;42.72;23.40;;;;;;;;;;5054398;28;20187;-82
2022/01/23 09:52:38;;;;;;;40.97;24.15;;;;;;;;;;5054777;28;20190;-78
2022/01/23 09:55:09;;;;;;;40.75;23.88;;;;;;;;;;5073480;28;20563;-79
2022/01/23 09:57:37;;;;;;;43.97;24.20;;;;;;;;;;5056415;28;20199;-76
2022/01/23 10:00:06;;;;;;;38.55;24.58;;;;;;;;;;5056078;28;20679;-76
2022/01/23 10:02:33;;;;;;;39.90;23.77;;;;;;;;;;5059356;28;20198;-76
2022/01/23 10:05:00;;;;;;;39.78;24.02;;;;;;;;;;5069697;28;20553;-76
2022/01/23 10:07:29;;;;;;;40.47;24.60;;;;;;;;;;5069240;28;20198;-77
2022/01/23 10:10:09;;;;;;;42.65;24.90;;;;;;;;;;5073770;28;20209;-76
2022/01/23 10:12:38;;;;;;;46.03;24.65;;;;;;;;;;5073549;28;20190;-76
2022/01/23 10:15:06;;;;;;;43.75;25.30;;;;;;;;;;5063616;28;20544;-77
2022/01/23 10:17:33;;;;;;;41.33;24.40;;;;;;;;;;5053420;28;20198;-76
2022/01/23 10:20:00;;;;;;;38.45;23.05;;;;;;;;;;5073593;28;20222;-76
2022/01/23 10:22:29;;;;;;;37.08;22.65;;;;;;;;;;5053658;28;20743;-76
2022/01/23 10:25:04;;;;;;;34.45;21.83;;;;;;;;;;5058089;28;20230;-76
2022/01/23 10:27:51;;;;;;;39.83;22.80;;;;;;;;;;5069803;28;20193;-77
2022/01/23 10:30:19;;;;;;;43.33;23.65;;;;;;;;;;5052238;28;20186;-75
2022/01/23 10:32:56;;;;;;;48.47;24.88;;;;;;;;;;5072831;28;20743;-77
2022/01/23 10:35:23;;;;;;;44.20;24.70;;;;;;;;;;5054929;28;20279;-77
2022/01/23 10:37:54;;;;;;;39.38;24.63;;;;;;;;;;5073715;28;20194;-76
2022/01/23 10:40:27;;;;;;;41.53;24.70;;;;;;;;;;5058564;28;20225;-76
2022/01/23 10:43:07;;;;;;;38.53;23.48;;;;;;;;;;5075660;28;20198;-76
2022/01/23 10:48:35;;;;;;;43.55;22.83;;;;;;;;;;5067916;28;20413;-77
2022/01/23 10:51:14;;;;;;;36.25;22.98;;;;;;;;;;5069212;28;20228;-77
2022/01/23 10:53:56;;;;;;;38.97;22.20;;;;;;;;;;5069897;28;20201;-76
2022/01/23 10:56:25;;;;;;;35.95;22.42;;;;;;;;;;5036383;28;20198;-76
2022/01/23 10:58:57;;;;;;;46.75;25.85;;;;;;;;;;5052944;28;20218;-79
2022/01/23 11:01:25;;;;;;;40.40;22.60;;;;;;;;;;5051712;28;20237;-77
2022/01/23 11:04:04;;;;;;;41.20;22.33;;;;;;;;;;5055760;28;20206;-76
2022/01/23 11:06:31;;;;;;;38.72;21.45;;;;;;;;;;5050935;28;20252;-76
2022/01/23 11:09:08;;;;;;;37.70;21.53;;;;;;;;;;5069619;28;20182;-76
2022/01/23 11:11:46;;;;;;;36.13;20.50;;;;;;;;;;5054772;28;20825;-76
2022/01/23 11:19:41;;;;;;;39.60;24.63;;;;;;;;;;5054981;28;20279;-77
2022/01/23 11:22:08;;;;;;;39.50;25.00;;;;;;;;;;5069011;28;20248;-76
2022/01/23 11:24:36;;;;;;;35.33;22.55;;;;;;;;;;5064589;28;20592;-76
2022/01/23 11:27:07;;;;;;;39.40;23.20;;;;;;;;;;5064692;28;20623;-78
2022/01/23 11:29:34;;;;;;;38.25;23.27;;;;;;;;;;5051016;28;20202;-76
2022/01/23 11:32:01;;;;;;;37.60;22.92;;;;;;;;;;5070983;28;20545;-76
2022/01/23 11:34:30;;;;;;;43.17;24.33;;;;;;;;;;5071123;28;20241;-76
2022/01/23 11:36:57;;;;;;;42.33;23.95;;;;;;;;;;5065179;28;20978;-76
2022/01/23 11:39:38;;;;;;;39.95;23.63;;;;;;;;;;5063361;28;20224;-75
2022/01/23 11:59:28;;;;;;;40.37;25.20;;;;;;;;;;4962816;28;20674;-77
2022/01/23 12:02:10;;;;;;;39.63;24.20;;;;;;;;;;5063078;28;20440;-76
2022/01/23 12:04:38;;;;;;;39.50;23.97;;;;;;;;;;5055026;28;20456;-77
2022/01/23 12:07:20;;;;;;;38.23;24.10;;;;;;;;;;5069655;28;20548;-76
2022/01/23 12:10:02;;;;;;;38.60;22.10;;;;;;;;;;5062134;28;20460;-77
2022/01/23 12:12:37;;;;;;;40.60;23.37;;;;;;;;;;5053539;28;20552;-76
2022/01/23 12:18:44;;;;;;;37.77;23.07;;;;;;;;;;5055324;27;3811106;-76
2022/01/23 12:21:27;;;;;;;38.17;22.92;;;;;;;;;;5136693;27;20195;-78
2022/01/23 12:29:42;;;;;;;41.70;23.90;;;;;;;;;;5107629;28;20457;-76
2022/01/23 12:32:39;;;;;;;41.77;24.57;;;;;;;;;;5088648;28;20439;-76
2022/01/23 12:35:07;;;;;;;37.53;23.70;;;;;;;;;;5063286;28;20517;-76
2022/01/23 12:43:53;;;;;;;36.50;23.00;;;;;;;;;;4943069;28;20461;-75
2022/01/23 12:46:29;;;;;;;38.10;23.77;;;;;;;;;;5061906;28;20427;-76
2022/01/23 12:48:59;;;;;;;38.20;22.33;;;;;;;;;;5066566;28;20463;-75
2022/01/23 12:51:42;;;;;;;37.53;22.50;;;;;;;;;;5069080;28;20527;-75
2022/01/23 12:54:12;;;;;;;42.20;23.48;;;;;;;;;;5054587;28;20551;-76
2022/01/23 12:56:43;;;;;;;37.13;23.07;;;;;;;;;;5056269;28;20235;-76
2022/01/23 12:59:15;;;;;;;38.37;21.83;;;;;;;;;;5074561;28;20920;-77
2022/01/23 13:01:44;;;;;;;38.33;23.23;;;;;;;;;;5049381;28;20519;-76
2022/01/23 13:04:11;;;;;;;36.77;23.30;;;;;;;;;;5054102;28;20558;-77
2022/01/23 13:06:44;;;;;;;37.57;22.43;;;;;;;;;;5079614;28;20436;-77
2022/01/23 13:09:16;;;;;;;34.20;21.40;;;;;;;;;;5069496;28;20487;-76
2022/01/23 13:11:55;;;;;;;33.93;21.53;;;;;;;;;;5078398;28;20838;-76
2022/01/23 13:14:28;;;;;;;33.07;21.50;;;;;;;;;;5074322;28;20506;-75
2022/01/23 13:19:59;;;;;;;34.07;20.53;;;;;;;;;;5068994;28;20452;-76
2022/01/23 13:30:49;;;;;;;33.03;18.57;;;;;;;;;;5022866;28;20445;-77
2022/01/23 13:33:20;;;;;;;29.73;19.88;;;;;;;;;;5040200;28;21005;-77
2022/01/23 13:35:51;;;;;;;29.30;18.20;;;;;;;;;;5043825;28;20215;-76
2022/01/23 13:38:25;;;;;;;34.83;18.90;;;;;;;;;;5049235;28;20656;-76
2022/01/23 13:40:59;;;;;;;36.93;21.33;;;;;;;;;;5034512;28;20502;-75
2022/01/23 13:51:42;;;;;;;33.13;19.40;;;;;;;;;;5029787;28;20525;-77
2022/01/23 13:59:38;;;;;;;31.50;18.00;;;;;;;;;;5039937;28;20191;-79
2022/01/23 14:02:14;;;;;;;33.72;19.17;;;;;;;;;;5047181;28;20460;-76
2022/01/23 14:04:44;;;;;;;30.75;18.77;;;;;;;;;;5039880;28;20230;-76
2022/01/23 14:07:11;;;;;;;31.77;18.80;;;;;;;;;;5022907;28;20716;-76
2022/01/23 14:09:40;;;;;;;32.37;20.40;;;;;;;;;;5052555;28;20199;-75
2022/01/23 14:12:09;;;;;;;36.87;20.13;;;;;;;;;;5034860;28;20449;-76
2022/01/23 14:14:38;;;;;;;35.08;21.10;;;;;;;;;;5032844;28;20481;-76
2022/01/23 14:17:16;;;;;;;37.38;21.70;;;;;;;;;;5043571;28;20250;-77
2022/01/23 14:19:56;;;;;;;33.87;19.33;;;;;;;;;;5031441;28;20207;-76
2022/01/23 14:22:27;;;;;;;36.80;22.73;;;;;;;;;;5039718;28;20454;-76
2022/01/23 14:25:05;;;;;;;40.83;22.63;;;;;;;;;;5050034;28;20225;-76
2022/01/23 14:27:33;;;;;;;37.63;22.10;;;;;;;;;;5055789;28;20457;-77
2022/01/23 14:30:00;;;;;;;35.40;22.05;;;;;;;;;;5051620;28;20194;-76
2022/01/23 14:32:35;;;;;;;40.27;21.77;;;;;;;;;;5050811;28;20194;-79
2022/01/23 14:35:06;;;;;;;34.08;20.98;;;;;;;;;;5051336;28;20464;-76
2022/01/23 14:37:33;;;;;;;36.85;21.35;;;;;;;;;;5059106;28;20214;-77
2022/01/23 14:40:15;;;;;;;39.65;21.38;;;;;;;;;;5058734;28;20195;-77
2022/01/23 14:42:57;;;;;;;33.03;20.50;;;;;;;;;;5071041;28;20568;-78
2022/01/23 14:45:25;;;;;;;40.15;22.65;;;;;;;;;;5072172;28;20271;-77
2022/01/23 14:47:54;;;;;;;37.85;22.38;;;;;;;;;;5054196;28;20547;-75
2022/01/23 14:50:24;;;;;;;32.72;19.85;;;;;;;;;;5053889;28;20201;-80
2022/01/23 14:52:52;;;;;;;39.00;22.38;;;;;;;;;;5068386;28;20200;-76
2022/01/23 14:55:20;;;;;;;39.87;22.63;;;;;;;;;;5061342;28;20220;-77
2022/01/23 14:57:47;;;;;;;33.47;20.38;;;;;;;;;;5059992;28;21032;-77
2022/01/23 15:00:15;;;;;;;36.67;21.63;;;;;;;;;;5071037;28;20205;-80
2022/01/23 15:02:43;;;;;;;41.22;23.30;;;;;;;;;;5069163;28;20194;-77
2022/01/23 15:05:14;;;;;;;35.20;19.63;;;;;;;;;;5069709;28;20694;-77
2022/01/23 15:07:42;;;;;;;41.80;23.25;;;;;;;;;;5071530;28;20921;-77
2022/01/23 15:10:10;;;;;;;42.57;22.53;;;;;;;;;;5071520;28;20556;-77
2022/01/23 15:12:38;;;;;;;42.67;22.43;;;;;;;;;;5062570;28;20444;-76
2022/01/23 15:15:06;;;;;;;38.15;22.85;;;;;;;;;;5058069;28;20472;-76
2022/01/23 15:17:34;;;;;;;40.77;21.97;;;;;;;;;;5044007;28;20222;-76
2022/01/23 15:20:01;;;;;;;32.58;19.42;;;;;;;;;;5053803;28;20454;-77
2022/01/23 15:22:29;;;;;;;32.95;20.45;;;;;;;;;;5069697;28;20194;-77
2022/01/23 15:24:57;;;;;;;32.38;16.10;;;;;;;;;;5071454;28;20230;-76
2022/01/23 15:27:24;;;;;;;8.98;6.05;;;;;;;;;;5068882;28;20608;-75
2022/01/23 15:29:51;;;;;;;9.32;6.72;;;;;;;;;;5058777;28;20213;-76
2022/01/23 15:32:18;;;;;;;10.23;6.70;;;;;;;;;;5061459;28;20647;-78
2022/01/23 15:34:46;;;;;;;12.25;8.38;;;;;;;;;;5061925;28;20245;-76
2022/01/23 15:37:14;;;;;;;13.02;7.82;;;;;;;;;;5064931;28;20224;-75
2022/01/23 15:39:43;;;;;;;9.32;6.47;;;;;;;;;;5070394;28;20194;-78
2022/01/23 15:42:10;;;;;;;10.60;6.40;;;;;;;;;;5071792;28;20198;-76
2022/01/23 15:44:38;;;;;;;7.57;4.93;;;;;;;;;;5063505;28;20218;-78
2022/01/23 15:47:06;;;;;;;6.28;4.57;;;;;;;;;;5060453;28;20243;-77
2022/01/23 15:49:33;;;;;;;7.07;4.85;;;;;;;;;;5073375;28;20217;-75
2022/01/23 15:52:01;;;;;;;5.47;4.40;;;;;;;;;;5058410;28;20644;-78
2022/01/23 15:54:29;;;;;;;5.93;4.70;;;;;;;;;;5057717;28;21003;-76
2022/01/23 15:56:58;;;;;;;7.10;4.93;;;;;;;;;;5049832;28;20222;-75
2022/01/23 15:59:25;;;;;;;7.15;4.22;;;;;;;;;;5064615;28;20194;-76
2022/01/23 16:01:52;;;;;;;7.25;5.18;;;;;;;;;;5063668;28;20548;-75
2022/01/23 16:04:21;;;;;;;7.05;4.80;;;;;;;;;;5040921;28;20218;-76
2022/01/23 16:06:48;;;;;;;9.65;5.53;;;;;;;;;;5061957;28;20194;-75
2022/01/23 16:09:16;;;;;;;6.85;4.93;;;;;;;;;;5050507;28;20194;-75
2022/01/23 16:11:43;;;;;;;12.43;7.18;;;;;;;;;;5071470;28;20190;-76
2022/01/23 16:14:12;;;;;;;9.85;6.55;;;;;;;;;;5060315;28;20226;-76
2022/01/23 16:16:39;;;;;;;11.63;6.95;;;;;;;;;;5057098;28;20655;-77
2022/01/23 16:19:06;;;;;;;10.95;7.68;;;;;;;;;;5066099;28;20201;-75
2022/01/23 16:21:33;;;;;;;13.15;8.13;;;;;;;;;;5070640;28;20201;-76
2022/01/23 16:24:00;;;;;;;12.65;7.90;;;;;;;;;;5069159;28;20233;-75
2022/01/23 16:26:28;;;;;;;13.27;8.80;;;;;;;;;;5049841;28;20227;-76
2022/01/23 16:28:55;;;;;;;21.92;11.40;;;;;;;;;;5044066;28;20199;-77
2022/01/23 16:31:23;;;;;;;25.35;12.68;;;;;;;;;;5038026;28;20187;-77
2022/01/23 16:33:50;;;;;;;27.63;14.75;;;;;;;;;;5037381;28;20191;-77
2022/01/23 16:36:18;;;;;;;25.98;14.05;;;;;;;;;;5032434;28;20195;-77
2022/01/23 16:38:45;;;;;;;29.58;15.27;;;;;;;;;;5049674;28;20222;-77
2022/01/23 16:41:12;;;;;;;21.63;13.45;;;;;;;;;;5050719;28;20206;-77
2022/01/23 16:43:39;;;;;;;24.75;13.55;;;;;;;;;;5050159;28;20203;-77
2022/01/23 16:46:07;;;;;;;22.52;12.93;;;;;;;;;;5046421;28;20226;-79
2022/01/23 16:48:36;;;;;;;20.67;13.10;;;;;;;;;;5038903;28;20200;-76
2022/01/23 16:51:06;;;;;;;16.88;10.35;;;;;;;;;;5034883;28;20206;-77
2022/01/23 16:53:33;;;;;;;18.75;11.27;;;;;;;;;;5046156;28;20660;-77
2022/01/23 16:56:00;;;;;;;17.80;10.07;;;;;;;;;;5012572;28;20199;-77
2022/01/23 16:58:28;;;;;;;14.27;9.50;;;;;;;;;;5029662;28;20219;-78
2022/01/23 17:00:56;;;;;;;16.15;9.23;;;;;;;;;;5032699;28;20282;-77
2022/01/23 17:03:23;;;;;;;13.23;8.32;;;;;;;;;;5024870;28;20199;-77
2022/01/23 17:05:55;;;;;;;13.18;8.65;;;;;;;;;;5040642;28;20587;-77
2022/01/23 17:08:22;;;;;;;16.55;9.23;;;;;;;;;;5035234;28;20205;-77
2022/01/23 17:10:52;;;;;;;12.85;7.95;;;;;;;;;;5022812;28;20698;-77
2022/01/23 17:13:19;;;;;;;14.15;8.65;;;;;;;;;;5034760;28;20204;-77
2022/01/23 17:15:46;;;;;;;17.13;10.07;;;;;;;;;;5050913;28;20308;-78
2022/01/23 17:18:14;;;;;;;15.13;9.73;;;;;;;;;;5043575;28;20237;-77
2022/01/23 17:20:42;;;;;;;14.45;8.43;;;;;;;;;;5039974;28;20199;-77
2022/01/23 17:23:10;;;;;;;12.25;7.15;;;;;;;;;;5040364;28;20195;-78
2022/01/23 17:25:37;;;;;;;9.88;7.30;;;;;;;;;;5048879;28;20238;-78
2022/01/23 17:28:05;;;;;;;10.18;6.47;;;;;;;;;;5071535;28;20209;-78
2022/01/23 17:30:32;;;;;;;9.40;6.72;;;;;;;;;;5074406;28;20201;-77
2022/01/23 17:32:59;;;;;;;9.07;6.20;;;;;;;;;;5056594;28;20199;-78